sensor_id;sensor_type;location;lat;lon;timestamp;P1;durP1;ratioP1;P2;durP2;ratioP2
31262;SDS011;17892;52.080;9.006;2023-03-23T00:02:24;4.18;;;1.48;;
31262;SDS011;17892;52.080;9.006;2023-03-23T00:04:51;3.00;;;1.00;;
31262;SDS011;17892;52.080;9.006;2023-03-23T00:07:18;4.82;;;1.45;;
31262;SDS011;17892;52.080;9.006;2023-03-23T00:09:52;3.40;;;1.20;;
31262;SDS011;17892;52.080;9.006;2023-03-23T00:12:25;3.40;;;1.42;;
31262;SDS011;17892;52.080;9.006;2023-03-23T00:14:58;2.72;;;1.27;;
31262;SDS011;17892;52.080;9.006;2023-03-23T00:17:29;3.97;;;1.35;;
31262;SDS011;17892;52.080;9.006;2023-03-23T00:19:58;3.22;;;1.35;;
31262;SDS011;17892;52.080;9.006;2023-03-23T00:22:26;3.47;;;1.30;;
31262;SDS011;17892;52.080;9.006;2023-03-23T00:24:53;2.58;;;1.10;;
31262;SDS011;17892;52.080;9.006;2023-03-23T00:27:20;5.18;;;2.72;;
31262;SDS011;17892;52.080;9.006;2023-03-23T00:29:47;3.88;;;1.42;;
31262;SDS011;17892;52.080;9.006;2023-03-23T00:32:17;3.88;;;1.60;;
31262;SDS011;17892;52.080;9.006;2023-03-23T00:34:45;3.55;;;1.35;;
31262;SDS011;17892;52.080;9.006;2023-03-23T00:37:13;2.67;;;1.25;;
31262;SDS011;17892;52.080;9.006;2023-03-23T00:39:42;3.78;;;1.40;;
31262;SDS011;17892;52.080;9.006;2023-03-23T00:42:10;2.60;;;1.23;;
31262;SDS011;17892;52.080;9.006;2023-03-23T00:44:41;3.75;;;1.10;;
31262;SDS011;17892;52.080;9.006;2023-03-23T00:47:08;2.88;;;1.10;;
31262;SDS011;17892;52.080;9.006;2023-03-23T00:49:36;3.55;;;1.30;;
31262;SDS011;17892;52.080;9.006;2023-03-23T00:52:03;3.10;;;1.40;;
31262;SDS011;17892;52.080;9.006;2023-03-23T00:54:31;2.75;;;1.05;;
31262;SDS011;17892;52.080;9.006;2023-03-23T00:56:57;2.92;;;1.23;;
31262;SDS011;17892;52.080;9.006;2023-03-23T00:59:23;3.22;;;1.45;;
31262;SDS011;17892;52.080;9.006;2023-03-23T01:01:48;3.63;;;1.40;;
31262;SDS011;17892;52.080;9.006;2023-03-23T01:04:15;4.45;;;1.67;;
31262;SDS011;17892;52.080;9.006;2023-03-23T01:06:41;3.97;;;1.38;;
31262;SDS011;17892;52.080;9.006;2023-03-23T01:09:10;3.83;;;1.52;;
31262;SDS011;17892;52.080;9.006;2023-03-23T01:11:43;4.57;;;2.20;;
31262;SDS011;17892;52.080;9.006;2023-03-23T01:14:10;3.22;;;1.35;;
31262;SDS011;17892;52.080;9.006;2023-03-23T01:16:37;3.65;;;1.30;;
31262;SDS011;17892;52.080;9.006;2023-03-23T01:19:02;3.28;;;1.08;;
31262;SDS011;17892;52.080;9.006;2023-03-23T01:21:28;2.40;;;1.20;;
31262;SDS011;17892;52.080;9.006;2023-03-23T01:23:55;3.45;;;1.70;;
31262;SDS011;17892;52.080;9.006;2023-03-23T01:26:22;2.95;;;1.17;;
31262;SDS011;17892;52.080;9.006;2023-03-23T01:31:18;2.50;;;1.00;;
31262;SDS011;17892;52.080;9.006;2023-03-23T01:33:47;3.50;;;1.35;;
31262;SDS011;17892;52.080;9.006;2023-03-23T01:36:23;3.72;;;1.00;;
31262;SDS011;17892;52.080;9.006;2023-03-23T01:38:53;4.25;;;1.30;;
31262;SDS011;17892;52.080;9.006;2023-03-23T01:41:20;3.22;;;1.40;;
31262;SDS011;17892;52.080;9.006;2023-03-23T01:43:53;3.13;;;1.02;;
31262;SDS011;17892;52.080;9.006;2023-03-23T01:46:27;3.50;;;1.50;;
31262;SDS011;17892;52.080;9.006;2023-03-23T01:48:55;4.55;;;1.63;;
31262;SDS011;17892;52.080;9.006;2023-03-23T01:51:23;3.03;;;1.17;;
31262;SDS011;17892;52.080;9.006;2023-03-23T01:53:55;2.67;;;1.20;;
31262;SDS011;17892;52.080;9.006;2023-03-23T01:56:26;2.60;;;1.10;;
31262;SDS011;17892;52.080;9.006;2023-03-23T01:58:58;4.32;;;1.30;;
31262;SDS011;17892;52.080;9.006;2023-03-23T02:01:24;4.30;;;2.10;;
31262;SDS011;17892;52.080;9.006;2023-03-23T02:03:51;2.70;;;1.10;;
31262;SDS011;17892;52.080;9.006;2023-03-23T02:06:19;2.80;;;0.95;;
31262;SDS011;17892;52.080;9.006;2023-03-23T02:08:45;2.50;;;1.13;;
31262;SDS011;17892;52.080;9.006;2023-03-23T02:11:18;4.45;;;1.60;;
31262;SDS011;17892;52.080;9.006;2023-03-23T02:13:46;2.95;;;1.10;;
31262;SDS011;17892;52.080;9.006;2023-03-23T02:19:10;3.53;;;1.17;;
31262;SDS011;17892;52.080;9.006;2023-03-23T02:27:26;2.88;;;1.20;;
31262;SDS011;17892;52.080;9.006;2023-03-23T02:33:47;2.97;;;1.33;;
31262;SDS011;17892;52.080;9.006;2023-03-23T02:39:24;3.72;;;1.50;;
31262;SDS011;17892;52.080;9.006;2023-03-23T02:41:47;2.95;;;1.10;;
31262;SDS011;17892;52.080;9.006;2023-03-23T02:44:25;3.70;;;1.23;;
31262;SDS011;17892;52.080;9.006;2023-03-23T02:46:55;3.35;;;1.17;;
31262;SDS011;17892;52.080;9.006;2023-03-23T02:49:22;2.90;;;1.38;;
31262;SDS011;17892;52.080;9.006;2023-03-23T02:51:50;3.55;;;1.20;;
31262;SDS011;17892;52.080;9.006;2023-03-23T02:54:18;3.97;;;1.50;;
31262;SDS011;17892;52.080;9.006;2023-03-23T02:56:47;2.90;;;1.33;;
31262;SDS011;17892;52.080;9.006;2023-03-23T02:59:13;4.40;;;1.25;;
31262;SDS011;17892;52.080;9.006;2023-03-23T03:04:12;3.83;;;1.13;;
31262;SDS011;17892;52.080;9.006;2023-03-23T03:09:33;4.03;;;1.60;;
31262;SDS011;17892;52.080;9.006;2023-03-23T03:12:09;4.05;;;2.13;;
31262;SDS011;17892;52.080;9.006;2023-03-23T03:14:46;2.95;;;1.40;;
31262;SDS011;17892;52.080;9.006;2023-03-23T03:17:33;3.35;;;1.40;;
31262;SDS011;17892;52.080;9.006;2023-03-23T03:20:08;3.35;;;1.45;;
31262;SDS011;17892;52.080;9.006;2023-03-23T03:22:36;2.70;;;1.23;;
31262;SDS011;17892;52.080;9.006;2023-03-23T03:25:07;3.45;;;1.55;;
31262;SDS011;17892;52.080;9.006;2023-03-23T03:27:33;2.42;;;1.13;;
31262;SDS011;17892;52.080;9.006;2023-03-23T03:30:00;3.35;;;1.25;;
31262;SDS011;17892;52.080;9.006;2023-03-23T03:32:36;2.50;;;1.40;;
31262;SDS011;17892;52.080;9.006;2023-03-23T03:35:08;2.85;;;1.30;;
31262;SDS011;17892;52.080;9.006;2023-03-23T03:37:35;2.80;;;1.23;;
31262;SDS011;17892;52.080;9.006;2023-03-23T03:40:07;2.92;;;1.27;;
31262;SDS011;17892;52.080;9.006;2023-03-23T03:42:41;2.58;;;1.10;;
31262;SDS011;17892;52.080;9.006;2023-03-23T03:45:09;3.40;;;1.40;;
31262;SDS011;17892;52.080;9.006;2023-03-23T03:47:39;2.25;;;0.80;;
31262;SDS011;17892;52.080;9.006;2023-03-23T03:50:05;2.65;;;1.23;;
31262;SDS011;17892;52.080;9.006;2023-03-23T03:52:31;2.10;;;1.05;;
31262;SDS011;17892;52.080;9.006;2023-03-23T03:54:58;2.42;;;1.00;;
31262;SDS011;17892;52.080;9.006;2023-03-23T03:57:24;3.00;;;1.13;;
31262;SDS011;17892;52.080;9.006;2023-03-23T03:59:50;3.13;;;1.20;;
31262;SDS011;17892;52.080;9.006;2023-03-23T04:02:16;3.25;;;1.05;;
31262;SDS011;17892;52.080;9.006;2023-03-23T04:04:45;2.35;;;1.08;;
31262;SDS011;17892;52.080;9.006;2023-03-23T04:07:13;2.22;;;1.00;;
31262;SDS011;17892;52.080;9.006;2023-03-23T04:09:41;5.85;;;1.58;;
31262;SDS011;17892;52.080;9.006;2023-03-23T04:12:11;2.53;;;0.98;;
31262;SDS011;17892;52.080;9.006;2023-03-23T04:14:41;2.40;;;0.90;;
31262;SDS011;17892;52.080;9.006;2023-03-23T04:17:06;2.53;;;1.05;;
31262;SDS011;17892;52.080;9.006;2023-03-23T04:19:36;2.35;;;1.00;;
31262;SDS011;17892;52.080;9.006;2023-03-23T04:22:03;3.72;;;1.45;;
31262;SDS011;17892;52.080;9.006;2023-03-23T04:24:30;2.40;;;0.95;;
31262;SDS011;17892;52.080;9.006;2023-03-23T04:26:58;2.95;;;1.20;;
31262;SDS011;17892;52.080;9.006;2023-03-23T04:29:25;3.05;;;1.10;;
31262;SDS011;17892;52.080;9.006;2023-03-23T04:31:52;2.17;;;1.00;;
31262;SDS011;17892;52.080;9.006;2023-03-23T04:34:18;2.75;;;0.95;;
31262;SDS011;17892;52.080;9.006;2023-03-23T04:36:44;2.30;;;0.88;;
31262;SDS011;17892;52.080;9.006;2023-03-23T04:39:11;1.95;;;0.90;;
31262;SDS011;17892;52.080;9.006;2023-03-23T04:41:38;2.13;;;0.80;;
31262;SDS011;17892;52.080;9.006;2023-03-23T04:44:05;2.55;;;0.98;;
31262;SDS011;17892;52.080;9.006;2023-03-23T04:46:32;2.15;;;0.90;;
31262;SDS011;17892;52.080;9.006;2023-03-23T04:48:58;2.00;;;0.85;;
31262;SDS011;17892;52.080;9.006;2023-03-23T04:51:24;1.73;;;0.75;;
31262;SDS011;17892;52.080;9.006;2023-03-23T04:53:54;2.20;;;0.93;;
31262;SDS011;17892;52.080;9.006;2023-03-23T04:56:20;2.80;;;0.75;;
31262;SDS011;17892;52.080;9.006;2023-03-23T04:58:46;3.15;;;0.82;;
31262;SDS011;17892;52.080;9.006;2023-03-23T05:01:12;1.83;;;0.73;;
31262;SDS011;17892;52.080;9.006;2023-03-23T05:03:42;2.00;;;0.80;;
31262;SDS011;17892;52.080;9.006;2023-03-23T05:06:09;1.67;;;0.60;;
31262;SDS011;17892;52.080;9.006;2023-03-23T05:08:36;2.03;;;0.68;;
31262;SDS011;17892;52.080;9.006;2023-03-23T05:11:05;2.50;;;0.80;;
31262;SDS011;17892;52.080;9.006;2023-03-23T05:13:32;2.25;;;0.80;;
31262;SDS011;17892;52.080;9.006;2023-03-23T05:15:58;1.67;;;0.63;;
31262;SDS011;17892;52.080;9.006;2023-03-23T05:18:29;2.50;;;0.93;;
31262;SDS011;17892;52.080;9.006;2023-03-23T05:20:59;2.30;;;0.80;;
31262;SDS011;17892;52.080;9.006;2023-03-23T05:23:26;2.78;;;1.00;;
31262;SDS011;17892;52.080;9.006;2023-03-23T05:25:55;2.05;;;0.73;;
31262;SDS011;17892;52.080;9.006;2023-03-23T05:28:25;1.70;;;0.60;;
31262;SDS011;17892;52.080;9.006;2023-03-23T05:30:52;1.60;;;0.70;;
31262;SDS011;17892;52.080;9.006;2023-03-23T05:33:18;1.92;;;0.70;;
31262;SDS011;17892;52.080;9.006;2023-03-23T05:35:45;2.20;;;0.80;;
31262;SDS011;17892;52.080;9.006;2023-03-23T05:38:12;1.67;;;0.63;;
31262;SDS011;17892;52.080;9.006;2023-03-23T05:40:39;2.00;;;0.68;;
31262;SDS011;17892;52.080;9.006;2023-03-23T05:43:06;1.70;;;0.60;;
31262;SDS011;17892;52.080;9.006;2023-03-23T05:45:33;1.70;;;0.60;;
31262;SDS011;17892;52.080;9.006;2023-03-23T05:47:59;1.83;;;0.60;;
31262;SDS011;17892;52.080;9.006;2023-03-23T05:50:25;1.40;;;0.60;;
31262;SDS011;17892;52.080;9.006;2023-03-23T05:52:53;1.65;;;0.60;;
31262;SDS011;17892;52.080;9.006;2023-03-23T05:55:20;1.45;;;0.50;;
31262;SDS011;17892;52.080;9.006;2023-03-23T05:57:45;2.80;;;0.80;;
31262;SDS011;17892;52.080;9.006;2023-03-23T06:00:11;1.83;;;0.70;;
31262;SDS011;17892;52.080;9.006;2023-03-23T06:02:46;1.58;;;0.60;;
31262;SDS011;17892;52.080;9.006;2023-03-23T06:05:13;3.20;;;0.80;;
31262;SDS011;17892;52.080;9.006;2023-03-23T06:07:40;1.98;;;0.80;;
31262;SDS011;17892;52.080;9.006;2023-03-23T06:10:07;2.83;;;0.90;;
31262;SDS011;17892;52.080;9.006;2023-03-23T06:12:38;1.92;;;0.80;;
31262;SDS011;17892;52.080;9.006;2023-03-23T06:15:05;1.70;;;0.65;;
31262;SDS011;17892;52.080;9.006;2023-03-23T06:17:33;2.30;;;0.95;;
31262;SDS011;17892;52.080;9.006;2023-03-23T06:20:01;1.67;;;0.60;;
31262;SDS011;17892;52.080;9.006;2023-03-23T06:22:38;1.67;;;0.80;;
31262;SDS011;17892;52.080;9.006;2023-03-23T06:25:05;2.75;;;0.80;;
31262;SDS011;17892;52.080;9.006;2023-03-23T06:27:32;2.85;;;1.10;;
31262;SDS011;17892;52.080;9.006;2023-03-23T06:29:58;1.95;;;0.73;;
31262;SDS011;17892;52.080;9.006;2023-03-23T06:32:24;2.90;;;1.05;;
31262;SDS011;17892;52.080;9.006;2023-03-23T06:34:53;2.80;;;0.95;;
31262;SDS011;17892;52.080;9.006;2023-03-23T06:37:19;2.58;;;0.95;;
31262;SDS011;17892;52.080;9.006;2023-03-23T06:39:45;3.00;;;0.95;;
31262;SDS011;17892;52.080;9.006;2023-03-23T06:42:11;1.83;;;0.73;;
31262;SDS011;17892;52.080;9.006;2023-03-23T06:44:37;2.42;;;1.00;;
31262;SDS011;17892;52.080;9.006;2023-03-23T06:47:03;2.13;;;0.73;;
31262;SDS011;17892;52.080;9.006;2023-03-23T06:49:29;2.65;;;1.00;;
31262;SDS011;17892;52.080;9.006;2023-03-23T06:51:55;2.10;;;1.00;;
31262;SDS011;17892;52.080;9.006;2023-03-23T06:54:21;2.15;;;0.90;;
31262;SDS011;17892;52.080;9.006;2023-03-23T06:56:47;2.15;;;1.00;;
31262;SDS011;17892;52.080;9.006;2023-03-23T06:59:13;2.03;;;0.90;;
31262;SDS011;17892;52.080;9.006;2023-03-23T07:01:39;3.47;;;1.20;;
31262;SDS011;17892;52.080;9.006;2023-03-23T07:04:05;2.15;;;0.82;;
31262;SDS011;17892;52.080;9.006;2023-03-23T07:06:31;3.90;;;0.98;;
31262;SDS011;17892;52.080;9.006;2023-03-23T07:08:57;2.67;;;0.95;;
31262;SDS011;17892;52.080;9.006;2023-03-23T07:11:23;2.95;;;1.00;;
31262;SDS011;17892;52.080;9.006;2023-03-23T07:13:50;3.10;;;1.05;;
31262;SDS011;17892;52.080;9.006;2023-03-23T07:16:16;5.10;;;1.10;;
31262;SDS011;17892;52.080;9.006;2023-03-23T07:18:42;3.67;;;1.00;;
31262;SDS011;17892;52.080;9.006;2023-03-23T07:21:08;2.13;;;0.90;;
31262;SDS011;17892;52.080;9.006;2023-03-23T07:23:35;2.78;;;1.20;;
31262;SDS011;17892;52.080;9.006;2023-03-23T07:26:01;3.78;;;1.00;;
31262;SDS011;17892;52.080;9.006;2023-03-23T07:28:28;2.15;;;0.80;;
31262;SDS011;17892;52.080;9.006;2023-03-23T07:30:55;2.35;;;1.10;;
31262;SDS011;17892;52.080;9.006;2023-03-23T07:33:20;3.00;;;1.10;;
31262;SDS011;17892;52.080;9.006;2023-03-23T07:35:47;2.40;;;0.90;;
31262;SDS011;17892;52.080;9.006;2023-03-23T07:38:13;3.70;;;1.02;;
31262;SDS011;17892;52.080;9.006;2023-03-23T07:40:39;2.47;;;0.90;;
31262;SDS011;17892;52.080;9.006;2023-03-23T07:43:06;2.80;;;0.90;;
31262;SDS011;17892;52.080;9.006;2023-03-23T07:45:32;3.28;;;1.30;;
31262;SDS011;17892;52.080;9.006;2023-03-23T07:47:58;4.18;;;1.30;;
31262;SDS011;17892;52.080;9.006;2023-03-23T07:50:25;2.13;;;1.00;;
31262;SDS011;17892;52.080;9.006;2023-03-23T07:52:54;3.00;;;1.08;;
31262;SDS011;17892;52.080;9.006;2023-03-23T07:55:22;3.80;;;1.42;;
31262;SDS011;17892;52.080;9.006;2023-03-23T07:57:49;2.65;;;1.20;;
31262;SDS011;17892;52.080;9.006;2023-03-23T08:00:18;3.38;;;1.20;;
31262;SDS011;17892;52.080;9.006;2023-03-23T08:02:45;3.28;;;1.02;;
31262;SDS011;17892;52.080;9.006;2023-03-23T08:05:13;2.30;;;1.00;;
31262;SDS011;17892;52.080;9.006;2023-03-23T08:07:40;2.58;;;1.00;;
31262;SDS011;17892;52.080;9.006;2023-03-23T08:10:07;2.95;;;1.20;;
31262;SDS011;17892;52.080;9.006;2023-03-23T08:12:35;2.65;;;1.02;;
31262;SDS011;17892;52.080;9.006;2023-03-23T08:15:03;3.92;;;1.20;;
31262;SDS011;17892;52.080;9.006;2023-03-23T08:17:31;3.47;;;1.25;;
31262;SDS011;17892;52.080;9.006;2023-03-23T08:19:59;4.68;;;1.25;;
31262;SDS011;17892;52.080;9.006;2023-03-23T08:22:25;2.65;;;1.13;;
31262;SDS011;17892;52.080;9.006;2023-03-23T08:24:54;4.40;;;1.50;;
31262;SDS011;17892;52.080;9.006;2023-03-23T08:27:20;3.10;;;1.20;;
31262;SDS011;17892;52.080;9.006;2023-03-23T08:29:46;3.92;;;1.50;;
31262;SDS011;17892;52.080;9.006;2023-03-23T08:32:12;3.53;;;1.23;;
31262;SDS011;17892;52.080;9.006;2023-03-23T08:34:38;5.57;;;1.58;;
31262;SDS011;17892;52.080;9.006;2023-03-23T08:37:04;4.25;;;1.60;;
31262;SDS011;17892;52.080;9.006;2023-03-23T08:39:31;4.05;;;1.33;;
31262;SDS011;17892;52.080;9.006;2023-03-23T08:41:56;3.22;;;1.42;;
31262;SDS011;17892;52.080;9.006;2023-03-23T08:44:22;4.13;;;1.20;;
31262;SDS011;17892;52.080;9.006;2023-03-23T08:46:48;3.08;;;1.20;;
31262;SDS011;17892;52.080;9.006;2023-03-23T08:49:14;4.30;;;1.50;;
31262;SDS011;17892;52.080;9.006;2023-03-23T08:51:40;4.93;;;1.50;;
31262;SDS011;17892;52.080;9.006;2023-03-23T08:54:07;5.07;;;1.40;;
31262;SDS011;17892;52.080;9.006;2023-03-23T08:56:32;4.13;;;1.20;;
31262;SDS011;17892;52.080;9.006;2023-03-23T08:58:58;2.33;;;1.00;;
31262;SDS011;17892;52.080;9.006;2023-03-23T09:01:24;2.97;;;1.20;;
31262;SDS011;17892;52.080;9.006;2023-03-23T09:03:51;3.42;;;1.20;;
31262;SDS011;17892;52.080;9.006;2023-03-23T09:06:17;2.90;;;1.30;;
31262;SDS011;17892;52.080;9.006;2023-03-23T09:08:43;3.92;;;1.38;;
31262;SDS011;17892;52.080;9.006;2023-03-23T09:11:09;4.78;;;1.30;;
31262;SDS011;17892;52.080;9.006;2023-03-23T09:13:36;4.38;;;1.20;;
31262;SDS011;17892;52.080;9.006;2023-03-23T09:16:04;4.32;;;1.17;;
31262;SDS011;17892;52.080;9.006;2023-03-23T09:18:31;4.15;;;1.30;;
31262;SDS011;17892;52.080;9.006;2023-03-23T09:20:58;3.72;;;1.00;;
31262;SDS011;17892;52.080;9.006;2023-03-23T09:23:24;3.20;;;1.20;;
31262;SDS011;17892;52.080;9.006;2023-03-23T09:25:51;5.32;;;1.48;;
31262;SDS011;17892;52.080;9.006;2023-03-23T09:28:18;4.22;;;1.40;;
31262;SDS011;17892;52.080;9.006;2023-03-23T09:30:44;4.28;;;1.10;;
31262;SDS011;17892;52.080;9.006;2023-03-23T09:33:12;4.22;;;1.00;;
31262;SDS011;17892;52.080;9.006;2023-03-23T09:35:39;3.25;;;1.40;;
31262;SDS011;17892;52.080;9.006;2023-03-23T09:38:07;4.22;;;1.30;;
31262;SDS011;17892;52.080;9.006;2023-03-23T09:40:46;5.47;;;1.50;;
31262;SDS011;17892;52.080;9.006;2023-03-23T09:43:57;2.65;;;1.20;;
31262;SDS011;17892;52.080;9.006;2023-03-23T09:52:07;3.53;;;1.20;;
31262;SDS011;17892;52.080;9.006;2023-03-23T09:54:43;3.47;;;1.40;;
31262;SDS011;17892;52.080;9.006;2023-03-23T09:59:56;3.92;;;1.40;;
31262;SDS011;17892;52.080;9.006;2023-03-23T10:02:52;6.45;;;1.55;;
31262;SDS011;17892;52.080;9.006;2023-03-23T10:08:14;4.07;;;1.30;;
31262;SDS011;17892;52.080;9.006;2023-03-23T10:13:53;2.85;;;1.20;;
31262;SDS011;17892;52.080;9.006;2023-03-23T10:16:37;2.95;;;1.00;;
31262;SDS011;17892;52.080;9.006;2023-03-23T10:19:12;3.17;;;1.20;;
31262;SDS011;17892;52.080;9.006;2023-03-23T10:21:50;2.67;;;0.90;;
31262;SDS011;17892;52.080;9.006;2023-03-23T10:24:19;6.30;;;1.20;;
31262;SDS011;17892;52.080;9.006;2023-03-23T10:32:10;3.30;;;1.30;;
31262;SDS011;17892;52.080;9.006;2023-03-23T10:34:44;3.90;;;1.40;;
31262;SDS011;17892;52.080;9.006;2023-03-23T10:37:21;4.53;;;1.58;;
31262;SDS011;17892;52.080;9.006;2023-03-23T10:39:58;3.78;;;1.52;;
31262;SDS011;17892;52.080;9.006;2023-03-23T10:42:36;4.15;;;1.70;;
31262;SDS011;17892;52.080;9.006;2023-03-23T10:45:17;4.60;;;1.48;;
31262;SDS011;17892;52.080;9.006;2023-03-23T10:47:49;3.55;;;1.20;;
31262;SDS011;17892;52.080;9.006;2023-03-23T10:50:39;3.35;;;1.38;;
31262;SDS011;17892;52.080;9.006;2023-03-23T10:56:18;3.92;;;1.30;;
31262;SDS011;17892;52.080;9.006;2023-03-23T10:58:54;6.60;;;1.52;;
31262;SDS011;17892;52.080;9.006;2023-03-23T11:01:28;6.53;;;1.52;;
31262;SDS011;17892;52.080;9.006;2023-03-23T11:03:57;3.63;;;1.42;;
31262;SDS011;17892;52.080;9.006;2023-03-23T11:06:34;4.43;;;1.50;;
31262;SDS011;17892;52.080;9.006;2023-03-23T11:09:11;5.05;;;1.35;;
31262;SDS011;17892;52.080;9.006;2023-03-23T11:11:42;3.50;;;1.23;;
31262;SDS011;17892;52.080;9.006;2023-03-23T11:14:19;5.72;;;1.40;;
31262;SDS011;17892;52.080;9.006;2023-03-23T11:16:52;5.20;;;1.40;;
31262;SDS011;17892;52.080;9.006;2023-03-23T11:19:29;3.25;;;1.30;;
31262;SDS011;17892;52.080;9.006;2023-03-23T11:24:34;3.90;;;1.10;;
31262;SDS011;17892;52.080;9.006;2023-03-23T11:27:07;5.35;;;1.33;;
31262;SDS011;17892;52.080;9.006;2023-03-23T11:29:34;3.50;;;1.13;;
31262;SDS011;17892;52.080;9.006;2023-03-23T11:32:14;3.72;;;1.35;;
31262;SDS011;17892;52.080;9.006;2023-03-23T11:34:41;1.48;;;0.30;;
31262;SDS011;17892;52.080;9.006;2023-03-23T11:42:37;1.17;;;0.20;;
31262;SDS011;17892;52.080;9.006;2023-03-23T11:47:48;0.57;;;0.20;;
31262;SDS011;17892;52.080;9.006;2023-03-23T11:50:32;1.13;;;0.20;;
31262;SDS011;17892;52.080;9.006;2023-03-23T11:58:56;0.70;;;0.30;;
31262;SDS011;17892;52.080;9.006;2023-03-23T12:04:37;0.43;;;0.28;;
31262;SDS011;17892;52.080;9.006;2023-03-23T12:10:52;0.90;;;0.30;;
31262;SDS011;17892;52.080;9.006;2023-03-23T12:13:33;0.85;;;0.28;;
31262;SDS011;17892;52.080;9.006;2023-03-23T12:19:01;0.88;;;0.25;;
31262;SDS011;17892;52.080;9.006;2023-03-23T12:24:47;1.45;;;0.30;;
31262;SDS011;17892;52.080;9.006;2023-03-23T12:27:35;1.63;;;0.38;;
31262;SDS011;17892;52.080;9.006;2023-03-23T12:36:24;0.90;;;0.50;;
31262;SDS011;17892;52.080;9.006;2023-03-23T12:42:31;1.23;;;0.40;;
31262;SDS011;17892;52.080;9.006;2023-03-23T12:47:40;1.02;;;0.20;;
31262;SDS011;17892;52.080;9.006;2023-03-23T12:53:04;1.58;;;0.98;;
31262;SDS011;17892;52.080;9.006;2023-03-23T12:55:47;2.17;;;0.20;;
31262;SDS011;17892;52.080;9.006;2023-03-23T12:58:18;1.63;;;0.30;;
31262;SDS011;17892;52.080;9.006;2023-03-23T13:17:22;1.98;;;0.40;;
31262;SDS011;17892;52.080;9.006;2023-03-23T13:23:15;1.58;;;0.40;;
31262;SDS011;17892;52.080;9.006;2023-03-23T13:26:03;1.23;;;0.30;;
31262;SDS011;17892;52.080;9.006;2023-03-23T13:28:54;1.48;;;0.50;;
31262;SDS011;17892;52.080;9.006;2023-03-23T13:34:18;1.90;;;0.60;;
31262;SDS011;17892;52.080;9.006;2023-03-23T13:36:52;1.10;;;0.30;;
31262;SDS011;17892;52.080;9.006;2023-03-23T13:39:31;0.80;;;0.35;;
31262;SDS011;17892;52.080;9.006;2023-03-23T13:42:21;2.38;;;0.60;;
31262;SDS011;17892;52.080;9.006;2023-03-23T13:45:19;2.13;;;0.52;;
31262;SDS011;17892;52.080;9.006;2023-03-23T13:50:49;1.65;;;0.60;;
31262;SDS011;17892;52.080;9.006;2023-03-23T13:53:30;1.52;;;0.65;;
31262;SDS011;17892;52.080;9.006;2023-03-23T13:56:19;2.17;;;0.60;;
31262;SDS011;17892;52.080;9.006;2023-03-23T13:59:05;1.08;;;0.43;;
31262;SDS011;17892;52.080;9.006;2023-03-23T14:01:54;2.72;;;1.02;;
31262;SDS011;17892;52.080;9.006;2023-03-23T14:04:21;2.10;;;0.60;;
31262;SDS011;17892;52.080;9.006;2023-03-23T14:07:07;1.33;;;0.50;;
31262;SDS011;17892;52.080;9.006;2023-03-23T14:09:41;1.67;;;0.57;;
31262;SDS011;17892;52.080;9.006;2023-03-23T14:12:19;1.20;;;0.50;;
31262;SDS011;17892;52.080;9.006;2023-03-23T14:14:51;1.45;;;0.40;;
31262;SDS011;17892;52.080;9.006;2023-03-23T14:17:27;1.95;;;0.50;;
31262;SDS011;17892;52.080;9.006;2023-03-23T14:19:57;1.35;;;0.50;;
31262;SDS011;17892;52.080;9.006;2023-03-23T14:22:28;1.35;;;0.60;;
31262;SDS011;17892;52.080;9.006;2023-03-23T14:25:10;1.95;;;0.90;;
31262;SDS011;17892;52.080;9.006;2023-03-23T14:27:39;1.58;;;0.68;;
31262;SDS011;17892;52.080;9.006;2023-03-23T14:30:07;1.80;;;0.77;;
31262;SDS011;17892;52.080;9.006;2023-03-23T14:32:41;2.03;;;0.95;;
31262;SDS011;17892;52.080;9.006;2023-03-23T14:35:12;2.55;;;1.02;;
31262;SDS011;17892;52.080;9.006;2023-03-23T14:37:44;1.55;;;0.75;;
31262;SDS011;17892;52.080;9.006;2023-03-23T14:40:14;1.88;;;0.90;;
31262;SDS011;17892;52.080;9.006;2023-03-23T14:42:42;1.65;;;0.80;;
31262;SDS011;17892;52.080;9.006;2023-03-23T14:45:10;2.65;;;1.10;;
31262;SDS011;17892;52.080;9.006;2023-03-23T14:47:45;3.05;;;1.10;;
31262;SDS011;17892;52.080;9.006;2023-03-23T14:52:49;2.97;;;1.00;;
31262;SDS011;17892;52.080;9.006;2023-03-23T14:55:22;4.18;;;1.50;;
31262;SDS011;17892;52.080;9.006;2023-03-23T14:57:48;2.63;;;1.02;;
31262;SDS011;17892;52.080;9.006;2023-03-23T15:00:20;2.35;;;0.80;;
31262;SDS011;17892;52.080;9.006;2023-03-23T15:02:49;2.45;;;1.02;;
31262;SDS011;17892;52.080;9.006;2023-03-23T15:05:26;2.03;;;0.80;;
31262;SDS011;17892;52.080;9.006;2023-03-23T15:07:59;3.80;;;1.00;;
31262;SDS011;17892;52.080;9.006;2023-03-23T15:10:54;3.85;;;1.20;;
31262;SDS011;17892;52.080;9.006;2023-03-23T15:13:50;2.60;;;1.00;;
31262;SDS011;17892;52.080;9.006;2023-03-23T15:16:32;2.70;;;0.90;;
31262;SDS011;17892;52.080;9.006;2023-03-23T15:19:00;3.45;;;1.10;;
31262;SDS011;17892;52.080;9.006;2023-03-23T15:21:32;1.90;;;0.90;;
31262;SDS011;17892;52.080;9.006;2023-03-23T15:24:01;1.83;;;0.80;;
31262;SDS011;17892;52.080;9.006;2023-03-23T15:26:43;2.92;;;1.52;;
31262;SDS011;17892;52.080;9.006;2023-03-23T15:31:45;2.78;;;0.93;;
31262;SDS011;17892;52.080;9.006;2023-03-23T15:37:04;2.10;;;0.80;;
31262;SDS011;17892;52.080;9.006;2023-03-23T15:39:44;2.78;;;1.02;;
31262;SDS011;17892;52.080;9.006;2023-03-23T15:47:46;2.38;;;0.90;;
31262;SDS011;17892;52.080;9.006;2023-03-23T15:50:15;2.28;;;1.00;;
31262;SDS011;17892;52.080;9.006;2023-03-23T15:52:46;2.72;;;1.15;;
31262;SDS011;17892;52.080;9.006;2023-03-23T15:55:20;2.30;;;0.98;;
31262;SDS011;17892;52.080;9.006;2023-03-23T15:57:50;2.50;;;1.13;;
31262;SDS011;17892;52.080;9.006;2023-03-23T16:00:17;2.88;;;1.38;;
31262;SDS011;17892;52.080;9.006;2023-03-23T16:02:46;2.15;;;1.02;;
31262;SDS011;17892;52.080;9.006;2023-03-23T16:05:16;2.65;;;1.20;;
31262;SDS011;17892;52.080;9.006;2023-03-23T16:07:42;3.60;;;1.33;;
31262;SDS011;17892;52.080;9.006;2023-03-23T16:10:18;3.30;;;1.65;;
31262;SDS011;17892;52.080;9.006;2023-03-23T16:12:47;2.58;;;1.10;;
31262;SDS011;17892;52.080;9.006;2023-03-23T16:15:14;4.47;;;1.50;;
31262;SDS011;17892;52.080;9.006;2023-03-23T16:17:41;4.45;;;1.50;;
31262;SDS011;17892;52.080;9.006;2023-03-23T16:20:14;5.40;;;2.25;;
31262;SDS011;17892;52.080;9.006;2023-03-23T16:22:46;2.75;;;1.27;;
31262;SDS011;17892;52.080;9.006;2023-03-23T16:25:13;2.35;;;1.13;;
31262;SDS011;17892;52.080;9.006;2023-03-23T16:27:40;2.95;;;1.30;;
31262;SDS011;17892;52.080;9.006;2023-03-23T16:30:14;3.10;;;1.30;;
31262;SDS011;17892;52.080;9.006;2023-03-23T16:32:43;3.67;;;1.33;;
31262;SDS011;17892;52.080;9.006;2023-03-23T16:35:10;3.45;;;1.27;;
31262;SDS011;17892;52.080;9.006;2023-03-23T16:37:38;3.08;;;1.27;;
31262;SDS011;17892;52.080;9.006;2023-03-23T16:40:10;4.97;;;1.33;;
31262;SDS011;17892;52.080;9.006;2023-03-23T16:42:37;3.70;;;1.50;;
31262;SDS011;17892;52.080;9.006;2023-03-23T16:45:03;2.80;;;1.45;;
31262;SDS011;17892;52.080;9.006;2023-03-23T16:47:30;4.88;;;2.05;;
31262;SDS011;17892;52.080;9.006;2023-03-23T16:49:56;3.78;;;1.52;;
31262;SDS011;17892;52.080;9.006;2023-03-23T16:52:22;3.50;;;1.23;;
31262;SDS011;17892;52.080;9.006;2023-03-23T16:54:48;2.95;;;1.45;;
31262;SDS011;17892;52.080;9.006;2023-03-23T16:57:14;2.97;;;1.48;;
31262;SDS011;17892;52.080;9.006;2023-03-23T16:59:41;3.45;;;1.40;;
31262;SDS011;17892;52.080;9.006;2023-03-23T17:02:08;3.05;;;1.33;;
31262;SDS011;17892;52.080;9.006;2023-03-23T17:04:36;3.00;;;1.20;;
31262;SDS011;17892;52.080;9.006;2023-03-23T17:07:02;4.70;;;1.83;;
31262;SDS011;17892;52.080;9.006;2023-03-23T17:09:28;3.80;;;1.90;;
31262;SDS011;17892;52.080;9.006;2023-03-23T17:11:54;2.70;;;1.50;;
31262;SDS011;17892;52.080;9.006;2023-03-23T17:14:20;3.13;;;1.30;;
31262;SDS011;17892;52.080;9.006;2023-03-23T17:16:46;3.25;;;1.48;;